Aeroporto :
LOGIN :

Iscrizione | Disclaimer

   EN    FR    IT 

 










Sommario :    VFR   VFR Marginale   IFR   IFR Intensivo   IFR Molto Intensivo
Visibilità : 
Base nubi : 
>= 8 km
>= 3000ft
5 / 8 km
1000 / 3000 ft
1500m / 5 km
500 / 1000 ft
800 / 1500m
200 / 500 ft
< 800m
< 200 ft
Simboli :   Temporali  Nebbia  Neve Forte  Precipitazioni Forti  Vento > 20 kt
SIGMETs :   Varie  Temporali  Ghiacco  Turbolenza  Onda orograficha  Ceneri Vulcaniche






- Altitudine del aeroporto : 80 ft
- Codice IATA : LPL


EGGP - Liverpool John Lennon

ULTIMO METAR :
  • 171820Z 36009KT 9999 SCT049 08/07 Q1016

METARs OBSOLETI :
  • 171750Z 01009KT 9999 VCSH FEW018 08/08 Q1016
  • 171720Z 36009KT 9999 VCSH FEW018 SCT049 08/07 Q1016
  • 171650Z 35009KT 9999 VCSH FEW018 SCT048 08/07 Q1016
  • 171620Z 35009KT 320V030 9999 -DZ FEW018 BKN049 08/08 Q1015
  • 171550Z 35009KT 9999 -DZ FEW018 BKN035 08/08 Q1015

TAF TAF EGGP
Valido dal 17 a 18 ore il 18 a 18 ore UTC


171659Z 1718/1818 35008KT 9999 FEW010 SCT035
TEMPO 1718/1721 6000 -RA BKN010
PROB30 1802/1810 6000
ATIS : +44 151 907 2000 (option 5 or ext 5150)
Met : +44 871 750 5150



MetMap, La meteo Aeronautica in un colpo d'occhio ! - Copyright ORBIFLY Dicembre 2007 - Disclaimer

ORBIFLY MET'MAP TEAM :

Programmazione e sviluppo : Alexandra Zaïnal
Concezione e sviluppo : Baudouin d'Aumeries
Co-Programmazione e sviluppo : Marc-Olivier Méhu
Supporto tecnico e logistico : Manuel Goepfert
Aiuto per la traduzione : Arnaldo La Scala

Contatto : metmap@orbifly.com




FONTI E CREDITI :

   NOAA